Time;durP1;ratioP1;P1;durP2;ratioP2;P2;SDS_P1;SDS_P2;PMS_P1;PMS_P2;Temp;Humidity;BMP_temperature;BMP_pressure;BME280_temperature;BME280_humidity;BME280_pressure;Samples;Min_cycle;Max_cycle;Signal;HPM_P1;HPM_P2
2022/03/08 00:00:25;;;;;;;14.77;11.65;;;8.00;99.90;;;;;;5031243;28;20108;-70
2022/03/08 00:02:51;;;;;;;12.88;11.55;;;8.00;99.90;;;;;;5028159;28;20025;-70
2022/03/08 00:05:18;;;;;;;13.02;11.63;;;8.00;99.90;;;;;;5029596;28;20091;-70
2022/03/08 00:07:46;;;;;;;15.07;11.13;;;8.00;99.90;;;;;;5029535;28;20025;-71
2022/03/08 00:10:13;;;;;;;13.93;10.85;;;8.00;99.90;;;;;;5029641;28;20108;-70
2022/03/08 00:12:39;;;;;;;12.23;10.73;;;8.00;99.90;;;;;;5030980;28;20037;-70
2022/03/08 00:15:19;;;;;;;12.43;11.10;;;8.00;99.90;;;;;;5029963;28;20478;-70
2022/03/08 00:17:45;;;;;;;13.13;10.68;;;8.00;99.90;;;;;;5029329;28;20520;-70
2022/03/08 00:20:12;;;;;;;14.85;11.07;;;8.00;99.90;;;;;;5029269;28;20119;-70
2022/03/08 00:22:39;;;;;;;12.32;11.02;;;8.00;99.90;;;;;;5029513;28;20449;-70
2022/03/08 00:25:07;;;;;;;12.77;10.70;;;8.00;99.90;;;;;;5028305;28;20040;-70
2022/03/08 00:27:33;;;;;;;12.32;10.35;;;8.00;99.90;;;;;;5030951;28;20550;-69
2022/03/08 00:29:59;;;;;;;12.73;10.10;;;8.10;99.90;;;;;;5029032;28;20038;-69
2022/03/08 00:32:25;;;;;;;13.90;10.48;;;8.10;99.90;;;;;;5029606;28;20505;-70
2022/03/08 00:34:52;;;;;;;14.00;10.65;;;8.10;99.90;;;;;;5029110;28;20029;-69
2022/03/08 00:37:17;;;;;;;12.52;10.25;;;8.00;99.90;;;;;;5029294;28;20021;-69
2022/03/08 00:39:43;;;;;;;10.57;9.35;;;8.00;99.90;;;;;;5030252;28;20028;-70
2022/03/08 00:42:12;;;;;;;12.88;10.10;;;8.00;99.90;;;;;;5031004;28;20033;-69
2022/03/08 00:44:44;;;;;;;13.18;10.65;;;8.00;99.90;;;;;;5032735;28;20042;-69
2022/03/08 00:47:11;;;;;;;12.65;10.05;;;8.00;99.90;;;;;;5032521;28;20167;-69
2022/03/08 00:49:37;;;;;;;12.55;10.13;;;8.00;99.90;;;;;;5032941;28;20026;-69
2022/03/08 00:52:04;;;;;;;13.32;10.27;;;8.10;99.90;;;;;;5033058;28;20041;-69
2022/03/08 00:54:30;;;;;;;13.32;9.82;;;8.00;99.90;;;;;;5034097;28;20036;-69
2022/03/08 00:56:56;;;;;;;12.73;10.40;;;8.10;99.90;;;;;;5032565;28;20042;-70
2022/03/08 00:59:21;;;;;;;13.52;10.63;;;8.00;99.90;;;;;;5032412;28;20036;-70
2022/03/08 01:01:48;;;;;;;11.30;10.10;;;8.00;99.90;;;;;;5032523;28;20119;-71
2022/03/08 01:04:15;;;;;;;12.65;9.95;;;8.00;99.90;;;;;;5031301;28;20057;-70
2022/03/08 01:06:42;;;;;;;12.60;10.50;;;8.00;99.90;;;;;;5034044;28;20032;-70
2022/03/08 01:09:08;;;;;;;12.48;9.95;;;8.00;99.90;;;;;;5031046;28;20026;-70
2022/03/08 01:11:36;;;;;;;13.75;10.45;;;8.00;99.90;;;;;;5032039;28;20037;-69
2022/03/08 01:14:06;;;;;;;11.05;9.95;;;8.00;99.90;;;;;;5032119;28;20056;-70
2022/03/08 01:16:33;;;;;;;12.52;10.20;;;8.00;99.90;;;;;;5032503;28;20041;-69
2022/03/08 01:18:59;;;;;;;11.85;10.48;;;7.90;99.90;;;;;;5031943;28;20029;-69
2022/03/08 01:21:25;;;;;;;12.68;10.65;;;7.90;99.90;;;;;;5031602;28;20500;-69
2022/03/08 01:23:51;;;;;;;13.25;10.75;;;8.00;99.90;;;;;;5031575;28;20108;-68
2022/03/08 01:26:17;;;;;;;16.45;10.98;;;8.00;99.90;;;;;;5032105;28;20079;-68
2022/03/08 01:28:43;;;;;;;13.68;10.35;;;7.90;99.90;;;;;;5031703;28;20034;-68
2022/03/08 01:31:08;;;;;;;12.43;9.95;;;8.00;99.90;;;;;;5032190;28;20030;-68
2022/03/08 01:33:35;;;;;;;13.18;10.57;;;8.00;99.90;;;;;;5033656;28;20044;-68
2022/03/08 01:36:01;;;;;;;13.82;11.10;;;7.90;99.90;;;;;;5031710;28;20049;-68
2022/03/08 01:38:27;;;;;;;14.60;10.93;;;8.00;99.90;;;;;;5031354;28;20425;-68
2022/03/08 01:40:53;;;;;;;14.38;10.77;;;7.90;99.90;;;;;;5031517;28;20170;-68
2022/03/08 01:43:19;;;;;;;12.13;10.30;;;7.90;99.90;;;;;;5030355;28;20025;-68
2022/03/08 01:45:44;;;;;;;12.27;10.80;;;7.80;99.90;;;;;;5033096;28;20493;-68
2022/03/08 01:48:10;;;;;;;12.32;11.00;;;7.90;99.90;;;;;;5032374;28;20025;-68
2022/03/08 01:50:36;;;;;;;13.15;11.02;;;7.90;99.90;;;;;;5031175;28;20124;-68
2022/03/08 01:53:03;;;;;;;13.85;11.27;;;7.80;99.90;;;;;;5031128;28;20030;-67
2022/03/08 01:55:29;;;;;;;12.98;10.80;;;7.80;99.90;;;;;;5030542;28;20021;-68
2022/03/08 01:57:55;;;;;;;14.13;11.30;;;7.80;99.90;;;;;;5031932;28;20404;-68
2022/03/08 02:00:25;;;;;;;12.98;11.13;;;7.80;99.90;;;;;;5031428;28;20175;-68
2022/03/08 02:02:51;;;;;;;16.08;11.48;;;7.80;99.90;;;;;;5031241;28;20033;-69
2022/03/08 02:05:17;;;;;;;14.23;11.30;;;7.80;99.90;;;;;;5030212;28;20029;-69
2022/03/08 02:07:43;;;;;;;15.48;11.35;;;7.70;99.90;;;;;;5030351;28;20587;-69
2022/03/08 02:10:09;;;;;;;13.65;11.77;;;7.60;99.90;;;;;;5031059;28;20072;-69
2022/03/08 02:12:36;;;;;;;14.75;12.23;;;7.60;99.90;;;;;;5033141;28;20140;-69
2022/03/08 02:15:34;;;;;;;14.57;12.02;;;7.60;99.90;;;;;;5031034;28;20029;-69
2022/03/08 02:18:01;;;;;;;14.15;11.55;;;7.60;99.90;;;;;;5007440;28;20041;-69
2022/03/08 02:20:28;;;;;;;13.98;12.00;;;7.50;99.90;;;;;;5006629;28;20057;-69
2022/03/08 02:22:54;;;;;;;14.20;12.70;;;7.40;99.90;;;;;;5008817;28;20550;-68
2022/03/08 02:25:21;;;;;;;14.40;12.38;;;7.30;99.90;;;;;;5007178;28;20125;-68
2022/03/08 02:27:52;;;;;;;15.15;12.73;;;7.30;99.90;;;;;;5009514;28;20037;-68
2022/03/08 02:30:19;;;;;;;17.00;13.10;;;7.30;99.90;;;;;;5008225;28;20034;-68
2022/03/08 02:32:45;;;;;;;17.15;13.23;;;7.30;99.90;;;;;;5007143;28;20061;-68
2022/03/08 02:35:14;;;;;;;15.88;13.25;;;7.20;99.90;;;;;;5007196;28;20069;-68
2022/03/08 02:37:42;;;;;;;17.08;14.02;;;7.20;99.90;;;;;;5008566;28;20116;-68
2022/03/08 02:40:11;;;;;;;15.30;13.63;;;7.30;99.90;;;;;;4992010;28;20044;-68
2022/03/08 02:42:37;;;;;;;15.52;13.68;;;7.30;99.90;;;;;;4994095;28;20438;-69
2022/03/08 02:45:04;;;;;;;16.50;14.25;;;7.30;99.90;;;;;;5006961;28;20041;-68
2022/03/08 02:47:30;;;;;;;18.17;14.75;;;7.40;99.90;;;;;;5006866;28;20041;-68
2022/03/08 02:49:56;;;;;;;16.83;14.35;;;7.30;99.90;;;;;;5006904;28;20129;-68
2022/03/08 02:52:21;;;;;;;17.00;14.90;;;7.30;99.90;;;;;;5006918;28;20045;-68
2022/03/08 02:54:47;;;;;;;19.73;14.95;;;7.30;99.90;;;;;;5031575;28;20026;-68
2022/03/08 02:57:13;;;;;;;19.25;15.30;;;7.30;99.90;;;;;;5031266;28;20033;-68
2022/03/08 02:59:39;;;;;;;17.23;14.88;;;7.20;99.90;;;;;;5030851;28;20030;-68
2022/03/08 03:02:05;;;;;;;26.02;23.33;;;7.30;99.90;;;;;;5028974;28;20071;-68
2022/03/08 03:04:30;;;;;;;18.83;16.58;;;7.30;99.90;;;;;;5027238;28;20041;-69
2022/03/08 03:06:56;;;;;;;19.15;15.40;;;7.30;99.90;;;;;;5029881;28;20164;-69
2022/03/08 03:09:23;;;;;;;20.45;16.25;;;7.30;99.90;;;;;;5032510;28;20131;-69
2022/03/08 03:11:49;;;;;;;18.77;16.65;;;7.30;99.90;;;;;;5029948;28;20049;-69
2022/03/08 03:14:14;;;;;;;18.73;16.40;;;7.20;99.90;;;;;;5030147;28;20018;-68
2022/03/08 03:16:40;;;;;;;20.58;16.40;;;7.20;99.90;;;;;;5028635;28;20052;-69
2022/03/08 03:19:06;;;;;;;19.15;16.17;;;7.10;99.90;;;;;;5029752;28;20495;-69
2022/03/08 03:21:32;;;;;;;20.77;17.27;;;7.10;99.90;;;;;;5031947;28;20108;-68
2022/03/08 03:23:58;;;;;;;19.95;16.70;;;7.10;99.90;;;;;;5029927;28;20057;-68
2022/03/08 03:26:23;;;;;;;20.17;17.25;;;7.10;99.90;;;;;;5029911;28;20021;-69
2022/03/08 03:28:49;;;;;;;19.95;17.70;;;7.00;99.90;;;;;;5013463;28;20112;-70
2022/03/08 03:31:15;;;;;;;21.17;17.67;;;7.00;99.90;;;;;;5030180;28;20037;-69
2022/03/08 03:33:41;;;;;;;21.08;18.38;;;6.90;99.90;;;;;;5031054;28;20033;-68
2022/03/08 03:36:07;;;;;;;20.08;17.05;;;7.00;99.90;;;;;;5029889;28;20457;-69
2022/03/08 03:38:33;;;;;;;21.02;17.40;;;6.90;99.90;;;;;;5030215;28;20036;-69
2022/03/08 03:40:58;;;;;;;21.48;18.48;;;6.90;99.90;;;;;;5028523;28;20025;-68
2022/03/08 03:43:24;;;;;;;19.75;17.63;;;6.90;99.90;;;;;;5029800;28;20509;-69
2022/03/08 03:45:50;;;;;;;21.73;17.73;;;6.90;99.90;;;;;;5030454;28;20041;-68
2022/03/08 03:48:16;;;;;;;21.40;18.98;;;6.90;99.90;;;;;;5031045;28;20026;-68
2022/03/08 03:50:42;;;;;;;22.13;17.92;;;6.80;99.90;;;;;;5029439;28;20175;-68
2022/03/08 03:53:08;;;;;;;21.65;17.88;;;6.90;99.90;;;;;;5029536;28;20051;-68
2022/03/08 03:55:34;;;;;;;21.75;18.67;;;6.90;99.90;;;;;;5029454;28;20025;-68
2022/03/08 03:58:00;;;;;;;20.58;18.27;;;6.80;99.90;;;;;;5029585;28;20053;-70
2022/03/08 04:00:26;;;;;;;21.60;18.67;;;6.80;99.90;;;;;;5031436;28;20041;-69
2022/03/08 04:02:52;;;;;;;21.52;19.10;;;6.80;99.90;;;;;;5029338;28;20034;-69
2022/03/08 04:05:18;;;;;;;23.02;19.70;;;6.80;99.90;;;;;;5029378;28;20502;-69
2022/03/08 04:07:44;;;;;;;22.48;19.33;;;6.80;99.90;;;;;;5029918;28;20029;-69
2022/03/08 04:10:12;;;;;;;22.73;18.70;;;6.80;99.90;;;;;;5029572;28;20036;-69
2022/03/08 04:12:38;;;;;;;21.67;19.13;;;6.90;99.90;;;;;;5031460;28;20029;-70
2022/03/08 04:15:04;;;;;;;22.85;19.23;;;6.90;99.90;;;;;;5029597;28;20030;-69
2022/03/08 04:17:30;;;;;;;21.30;18.92;;;6.80;99.90;;;;;;5030068;28;20037;-69
2022/03/08 04:19:56;;;;;;;21.33;18.45;;;6.80;99.90;;;;;;5031932;28;20101;-70
2022/03/08 04:22:22;;;;;;;22.40;19.23;;;6.80;99.90;;;;;;5033377;28;20044;-69
2022/03/08 04:24:47;;;;;;;22.90;19.15;;;6.80;99.90;;;;;;5034750;28;20024;-69
2022/03/08 04:27:13;;;;;;;22.45;20.05;;;6.70;99.90;;;;;;5033876;28;20025;-69
2022/03/08 04:29:39;;;;;;;21.85;19.42;;;6.70;99.90;;;;;;5033149;28;20033;-69
2022/03/08 04:32:05;;;;;;;22.55;19.73;;;6.60;99.90;;;;;;5032599;28;20049;-69
2022/03/08 04:34:31;;;;;;;23.50;19.90;;;6.70;99.90;;;;;;5032770;28;20051;-69
2022/03/08 04:36:57;;;;;;;23.05;19.70;;;6.70;99.90;;;;;;5032878;28;20495;-69
2022/03/08 04:39:23;;;;;;;25.52;19.60;;;6.70;99.90;;;;;;5035157;28;20116;-69
2022/03/08 04:41:48;;;;;;;23.83;19.60;;;6.70;99.90;;;;;;5032866;28;20024;-69
2022/03/08 04:44:14;;;;;;;21.95;19.20;;;6.80;99.90;;;;;;5032785;28;20091;-69
2022/03/08 04:46:41;;;;;;;22.95;20.23;;;6.80;99.90;;;;;;5032663;28;20028;-69
2022/03/08 04:49:06;;;;;;;21.25;19.05;;;6.80;99.90;;;;;;5032709;28;20167;-70
2022/03/08 04:51:32;;;;;;;23.42;20.52;;;6.80;99.90;;;;;;5033405;28;20112;-69
2022/03/08 04:53:58;;;;;;;23.73;20.25;;;6.80;99.90;;;;;;5032601;28;20462;-69
2022/03/08 04:56:24;;;;;;;24.73;20.08;;;6.90;99.90;;;;;;5032451;28;20029;-69
2022/03/08 04:58:50;;;;;;;22.52;20.13;;;6.80;99.90;;;;;;5031828;28;20022;-69
2022/03/08 05:01:16;;;;;;;24.35;19.35;;;6.90;99.90;;;;;;5032333;28;20506;-69
2022/03/08 05:03:42;;;;;;;24.13;19.65;;;6.90;99.90;;;;;;5034053;28;20494;-68
2022/03/08 05:06:08;;;;;;;23.45;19.98;;;6.90;99.90;;;;;;5031325;28;20025;-68
2022/03/08 05:08:34;;;;;;;22.50;19.27;;;6.90;99.90;;;;;;5032332;28;20037;-69
2022/03/08 05:11:01;;;;;;;22.80;19.27;;;7.00;99.90;;;;;;5032818;28;20041;-69
2022/03/08 05:13:30;;;;;;;22.52;19.83;;;6.90;99.90;;;;;;5031003;28;20022;-69
2022/03/08 05:15:56;;;;;;;22.05;19.52;;;6.90;99.90;;;;;;5032021;28;20113;-69
2022/03/08 05:18:22;;;;;;;21.60;19.35;;;6.90;99.90;;;;;;5034024;28;20104;-69
2022/03/08 05:20:48;;;;;;;23.98;19.90;;;7.00;99.90;;;;;;5032500;28;20116;-69
2022/03/08 05:23:14;;;;;;;23.38;19.33;;;7.10;99.90;;;;;;5032133;28;20087;-69
2022/03/08 05:25:39;;;;;;;23.27;18.98;;;7.10;99.90;;;;;;5032341;28;20014;-69
2022/03/08 05:28:05;;;;;;;21.08;18.67;;;7.00;99.90;;;;;;5031922;28;20556;-69
2022/03/08 05:30:31;;;;;;;22.35;19.25;;;7.00;99.90;;;;;;5033591;28;20029;-70
2022/03/08 05:32:57;;;;;;;22.65;19.95;;;6.90;99.90;;;;;;5032090;28;20029;-70
2022/03/08 05:35:23;;;;;;;24.15;20.25;;;6.90;99.90;;;;;;5032177;28;20049;-70
2022/03/08 05:37:49;;;;;;;22.58;19.38;;;6.90;99.90;;;;;;5031549;28;20509;-70
2022/03/08 05:40:14;;;;;;;23.17;19.80;;;7.00;99.90;;;;;;5030471;28;20368;-69
2022/03/08 05:42:41;;;;;;;23.23;20.13;;;7.00;99.90;;;;;;5033538;28;20037;-70
2022/03/08 05:45:08;;;;;;;21.77;19.23;;;7.00;99.90;;;;;;5031499;28;20076;-70
2022/03/08 05:47:36;;;;;;;21.95;19.58;;;7.00;99.90;;;;;;5031652;28;20041;-70
2022/03/08 05:50:03;;;;;;;22.15;19.15;;;7.00;99.90;;;;;;5032007;28;20060;-70
2022/03/08 05:52:28;;;;;;;21.67;19.15;;;7.00;99.90;;;;;;5030158;28;20080;-69
2022/03/08 05:54:54;;;;;;;21.73;19.50;;;7.00;99.90;;;;;;5032065;28;20026;-69
2022/03/08 05:57:20;;;;;;;23.67;21.05;;;7.00;99.90;;;;;;5033537;28;20151;-69
2022/03/08 05:59:47;;;;;;;21.70;19.40;;;6.90;99.90;;;;;;5031297;28;20029;-69
2022/03/08 06:02:13;;;;;;;24.02;19.98;;;7.00;99.90;;;;;;5031559;28;20048;-69
2022/03/08 06:04:38;;;;;;;22.55;19.63;;;7.00;99.90;;;;;;5031429;28;20030;-69
2022/03/08 06:07:04;;;;;;;24.80;20.52;;;7.10;99.90;;;;;;5030284;28;20025;-69
2022/03/08 06:09:30;;;;;;;22.27;19.88;;;7.00;99.90;;;;;;5033697;28;20417;-69
2022/03/08 06:11:56;;;;;;;22.77;19.83;;;7.00;99.90;;;;;;5031182;28;20038;-69
2022/03/08 06:14:21;;;;;;;22.52;20.13;;;7.00;99.90;;;;;;5030819;28;20053;-69
2022/03/08 06:16:47;;;;;;;22.98;20.48;;;7.00;99.90;;;;;;5029965;28;20056;-69
2022/03/08 06:19:13;;;;;;;22.77;19.27;;;7.10;99.90;;;;;;5031305;28;20053;-69
2022/03/08 06:21:39;;;;;;;24.17;20.85;;;7.10;99.90;;;;;;5033158;28;20422;-69
2022/03/08 06:24:05;;;;;;;22.58;20.23;;;7.00;99.90;;;;;;5031327;28;20497;-68
2022/03/08 06:26:31;;;;;;;23.23;20.23;;;7.10;99.90;;;;;;5029291;28;20037;-68
2022/03/08 06:28:58;;;;;;;25.45;20.35;;;7.10;99.90;;;;;;5027919;28;20040;-69
2022/03/08 06:31:23;;;;;;;22.50;20.17;;;7.10;99.90;;;;;;5029647;28;20045;-69
2022/03/08 06:33:49;;;;;;;22.67;20.02;;;7.10;99.90;;;;;;5031859;28;20116;-70
2022/03/08 06:36:15;;;;;;;22.52;19.27;;;7.10;99.90;;;;;;5031694;28;20041;-70
2022/03/08 06:38:41;;;;;;;22.95;20.52;;;7.30;99.90;;;;;;5030706;28;20034;-70
2022/03/08 06:41:07;;;;;;;22.67;20.27;;;7.20;99.90;;;;;;5030004;28;20036;-70
2022/03/08 06:43:32;;;;;;;21.27;19.08;;;7.10;99.90;;;;;;5030946;28;20037;-70
2022/03/08 06:45:58;;;;;;;26.30;21.08;;;7.20;99.90;;;;;;5029183;28;20030;-70
2022/03/08 06:48:24;;;;;;;24.85;19.83;;;7.20;99.90;;;;;;5032464;28;20394;-70
2022/03/08 06:50:50;;;;;;;26.65;21.05;;;7.20;99.90;;;;;;5030290;28;20106;-69
2022/03/08 06:53:16;;;;;;;26.13;20.38;;;7.10;99.90;;;;;;5030367;28;20030;-69
2022/03/08 06:55:42;;;;;;;24.63;20.27;;;7.20;99.90;;;;;;5028965;28;20028;-70
2022/03/08 06:58:07;;;;;;;26.35;20.50;;;7.10;99.90;;;;;;5030430;28;20578;-69
2022/03/08 07:00:33;;;;;;;24.40;21.13;;;7.10;99.90;;;;;;5032592;28;20029;-69
2022/03/08 07:02:59;;;;;;;25.08;20.15;;;7.10;99.90;;;;;;5027651;28;20518;-69
2022/03/08 07:05:25;;;;;;;25.27;20.35;;;7.10;99.90;;;;;;5030272;28;20168;-69
2022/03/08 07:07:51;;;;;;;23.05;20.42;;;7.10;99.90;;;;;;5030284;28;20037;-69
2022/03/08 07:10:17;;;;;;;23.33;19.50;;;7.20;99.90;;;;;;5028290;28;20092;-69
2022/03/08 07:12:43;;;;;;;22.85;19.10;;;7.10;99.90;;;;;;5032179;28;20390;-69
2022/03/08 07:15:09;;;;;;;21.30;18.30;;;7.20;99.90;;;;;;5028679;28;20036;-68
2022/03/08 07:17:35;;;;;;;20.27;17.83;;;7.20;99.90;;;;;;5030269;28;20498;-68
2022/03/08 07:20:02;;;;;;;22.70;18.70;;;7.20;99.90;;;;;;5030216;28;20032;-69
2022/03/08 07:22:28;;;;;;;21.90;18.13;;;7.10;99.90;;;;;;5030214;28;20490;-69
2022/03/08 07:24:54;;;;;;;20.83;18.05;;;7.20;99.90;;;;;;5030257;28;20029;-69
2022/03/08 07:27:20;;;;;;;20.13;17.52;;;7.30;99.90;;;;;;5031093;28;20030;-69
2022/03/08 07:29:47;;;;;;;22.98;18.70;;;7.40;99.90;;;;;;5029912;28;20372;-69
2022/03/08 07:32:13;;;;;;;22.05;18.35;;;7.30;99.90;;;;;;5029799;28;20453;-69
2022/03/08 07:34:39;;;;;;;20.92;17.65;;;7.30;99.90;;;;;;5029139;28;20017;-71
2022/03/08 07:37:05;;;;;;;20.45;18.17;;;7.30;99.90;;;;;;5029901;28;20522;-69
2022/03/08 07:39:30;;;;;;;22.95;18.73;;;7.30;99.90;;;;;;5031338;28;20063;-68
2022/03/08 07:41:56;;;;;;;21.98;17.83;;;7.40;99.90;;;;;;5029680;28;20033;-69
2022/03/08 07:44:22;;;;;;;24.02;18.15;;;7.40;99.90;;;;;;5030002;28;20060;-69
2022/03/08 07:46:47;;;;;;;23.00;18.92;;;7.40;99.90;;;;;;5029751;28;20065;-68
2022/03/08 07:49:13;;;;;;;21.95;18.42;;;7.40;99.90;;;;;;5028338;28;20029;-68
2022/03/08 07:51:39;;;;;;;20.40;17.65;;;7.30;99.90;;;;;;5032989;28;20414;-67
2022/03/08 07:54:05;;;;;;;21.70;18.08;;;7.30;99.90;;;;;;5033481;28;20391;-67
2022/03/08 07:56:30;;;;;;;22.35;17.77;;;7.20;99.90;;;;;;5033579;28;20116;-67
2022/03/08 07:58:56;;;;;;;21.75;18.88;;;7.20;99.90;;;;;;5033999;28;20028;-67
2022/03/08 08:01:22;;;;;;;22.23;19.63;;;7.30;99.90;;;;;;5034335;28;20514;-68
2022/03/08 08:03:48;;;;;;;23.40;19.92;;;7.30;99.90;;;;;;5034791;28;21011;-68
2022/03/08 08:06:14;;;;;;;21.83;19.33;;;7.30;99.90;;;;;;5033932;28;20028;-68
2022/03/08 08:08:40;;;;;;;24.67;19.60;;;7.20;99.90;;;;;;5033535;28;20460;-67
2022/03/08 08:11:05;;;;;;;22.30;19.35;;;7.30;99.90;;;;;;5034061;28;20049;-67
2022/03/08 08:13:31;;;;;;;23.13;19.88;;;7.30;99.90;;;;;;5033617;28;20160;-68
2022/03/08 08:15:57;;;;;;;25.42;21.50;;;7.30;99.90;;;;;;5033768;28;20529;-67
2022/03/08 08:18:23;;;;;;;26.13;22.00;;;7.40;99.90;;;;;;5034445;28;20025;-68
2022/03/08 08:20:48;;;;;;;22.63;20.25;;;7.40;99.90;;;;;;5032451;28;20033;-68
2022/03/08 08:23:14;;;;;;;23.15;20.65;;;7.30;99.90;;;;;;5029280;28;20108;-68
2022/03/08 08:25:40;;;;;;;22.73;20.45;;;7.40;99.90;;;;;;5032884;28;20041;-68
2022/03/08 08:28:09;;;;;;;24.20;19.98;;;7.50;99.90;;;;;;5032842;28;20034;-69
2022/03/08 08:30:34;;;;;;;25.17;20.02;;;7.60;99.90;;;;;;5034176;28;20051;-69
2022/03/08 08:33:00;;;;;;;24.05;19.85;;;7.60;99.90;;;;;;5033203;28;20045;-69
2022/03/08 08:35:26;;;;;;;23.10;20.00;;;7.70;99.90;;;;;;5033223;28;20033;-68
2022/03/08 08:37:52;;;;;;;20.13;18.05;;;7.80;99.90;;;;;;5032653;28;20037;-68
2022/03/08 08:40:18;;;;;;;19.55;16.95;;;7.80;99.90;;;;;;5033045;28;20033;-68
2022/03/08 08:42:44;;;;;;;18.95;17.00;;;7.80;99.90;;;;;;5034290;28;20033;-69
2022/03/08 08:45:10;;;;;;;18.77;16.42;;;7.80;99.90;;;;;;5032899;28;20033;-68
2022/03/08 08:47:36;;;;;;;18.67;16.58;;;7.80;99.90;;;;;;5032608;28;20127;-68
2022/03/08 08:50:02;;;;;;;18.55;16.65;;;8.00;99.90;;;;;;5032517;28;20182;-73
2022/03/08 08:52:28;;;;;;;17.48;15.68;;;8.00;99.90;;;;;;5030999;28;20029;-74
2022/03/08 08:54:54;;;;;;;20.17;16.75;;;7.90;99.90;;;;;;5033438;28;20029;-77
2022/03/08 08:57:20;;;;;;;18.08;16.17;;;8.00;99.90;;;;;;5031636;28;20569;-75
2022/03/08 08:59:45;;;;;;;17.70;15.25;;;8.10;99.90;;;;;;5032541;28;20036;-75
2022/03/08 09:02:11;;;;;;;21.33;15.65;;;8.10;99.90;;;;;;5032366;28;20029;-73
2022/03/08 09:04:37;;;;;;;18.08;15.45;;;8.30;99.90;;;;;;5031659;28;20053;-76
2022/03/08 09:07:04;;;;;;;18.30;15.18;;;8.30;99.90;;;;;;5031834;28;20041;-74
2022/03/08 09:09:30;;;;;;;20.02;15.75;;;8.30;99.90;;;;;;5033275;28;20022;-74
2022/03/08 09:11:55;;;;;;;17.63;15.20;;;8.50;99.90;;;;;;5032165;28;20414;-76
2022/03/08 09:14:21;;;;;;;15.90;13.75;;;8.70;99.90;;;;;;5032418;28;20486;-74
2022/03/08 09:16:47;;;;;;;19.45;15.45;;;8.70;99.90;;;;;;5033356;28;20033;-76
2022/03/08 09:19:12;;;;;;;19.67;14.95;;;8.80;99.90;;;;;;5030468;28;20072;-75
2022/03/08 09:21:39;;;;;;;18.30;14.05;;;9.00;99.90;;;;;;5033958;28;20502;-73
2022/03/08 09:24:05;;;;;;;15.43;13.07;;;9.00;99.90;;;;;;5032348;28;20029;-76
2022/03/08 09:26:31;;;;;;;16.05;13.30;;;9.10;99.90;;;;;;5032692;28;20104;-75
2022/03/08 09:28:57;;;;;;;16.30;14.27;;;9.20;99.90;;;;;;5032489;28;20105;-78
2022/03/08 09:31:22;;;;;;;21.52;14.80;;;9.30;99.90;;;;;;5030543;28;20569;-73
2022/03/08 09:33:48;;;;;;;19.30;13.32;;;9.40;99.90;;;;;;5033318;28;20029;-76
2022/03/08 09:36:14;;;;;;;18.08;13.75;;;9.50;99.90;;;;;;5032529;28;20058;-76
2022/03/08 09:38:40;;;;;;;14.75;12.20;;;9.50;99.90;;;;;;5031900;28;20037;-76
2022/03/08 09:41:06;;;;;;;14.40;12.00;;;9.60;99.90;;;;;;5029108;28;20075;-76
2022/03/08 09:43:35;;;;;;;14.13;11.95;;;9.80;99.90;;;;;;5032053;28;20038;-77
2022/03/08 09:46:02;;;;;;;15.18;11.77;;;9.90;99.90;;;;;;5031933;28;20567;-77
2022/03/08 09:48:28;;;;;;;14.43;11.75;;;10.00;99.90;;;;;;5032377;28;20029;-76
2022/03/08 09:50:54;;;;;;;14.40;11.63;;;10.20;99.90;;;;;;5031419;28;20517;-76
2022/03/08 09:53:20;;;;;;;12.90;11.07;;;10.20;99.90;;;;;;5031542;28;20037;-76
2022/03/08 09:55:46;;;;;;;12.85;10.98;;;10.30;99.90;;;;;;5031997;28;20022;-77
2022/03/08 09:58:12;;;;;;;15.27;12.63;;;10.50;99.90;;;;;;5031828;28;20049;-77
2022/03/08 10:00:38;;;;;;;24.80;21.17;;;10.80;99.90;;;;;;5033538;28;20022;-76
2022/03/08 10:03:09;;;;;;;12.82;9.82;;;11.00;99.90;;;;;;5031560;28;20040;-76
2022/03/08 10:05:43;;;;;;;12.57;9.70;;;11.10;99.90;;;;;;5031151;28;20029;-76
2022/03/08 10:08:21;;;;;;;12.65;9.15;;;11.00;99.90;;;;;;5031222;28;20108;-76
2022/03/08 10:10:53;;;;;;;11.98;9.18;;;11.10;99.90;;;;;;5029935;28;20025;-77
2022/03/08 10:13:21;;;;;;;9.70;8.70;;;11.20;99.90;;;;;;5031727;28;20029;-76
2022/03/08 10:16:03;;;;;;;9.75;8.00;;;11.10;99.90;;;;;;5031701;28;20022;-76
2022/03/08 10:18:38;;;;;;;9.45;8.15;;;11.00;99.90;;;;;;5033218;28;20064;-77
2022/03/08 10:21:04;;;;;;;7.93;7.13;;;11.10;99.90;;;;;;5031039;28;20040;-76
2022/03/08 10:23:40;;;;;;;9.18;7.88;;;11.00;99.90;;;;;;5029702;28;20029;-77
2022/03/08 10:26:06;;;;;;;8.15;7.18;;;10.90;99.90;;;;;;5029210;28;20033;-69
2022/03/08 10:28:42;;;;;;;8.95;6.68;;;11.00;99.90;;;;;;5031089;28;20037;-72
2022/03/08 10:31:13;;;;;;;7.43;6.65;;;10.90;99.90;;;;;;5030948;28;20124;-73
2022/03/08 10:33:39;;;;;;;9.10;6.90;;;10.80;99.90;;;;;;5028195;28;20045;-68
2022/03/08 10:36:23;;;;;;;8.43;7.57;;;10.90;99.90;;;;;;5068665;28;20448;-70
2022/03/08 10:39:16;;;;;;;6.35;5.75;;;10.90;99.90;;;;;;5053942;28;20040;-73
2022/03/08 10:41:53;;;;;;;6.78;5.93;;;10.90;99.90;;;;;;5051334;28;20048;-73
2022/03/08 10:44:34;;;;;;;7.10;5.55;;;11.00;99.90;;;;;;5051452;28;20033;-69
2022/03/08 10:47:12;;;;;;;5.75;5.15;;;11.00;99.90;;;;;;5051169;28;20036;-74
2022/03/08 10:49:52;;;;;;;8.65;4.97;;;11.00;99.90;;;;;;5047618;28;20056;-70
2022/03/08 10:52:32;;;;;;;9.70;7.32;;;11.00;99.90;;;;;;5036589;28;20037;-72
2022/03/08 10:55:16;;;;;;;5.32;4.82;;;11.00;99.90;;;;;;5061734;28;20095;-72
2022/03/08 10:57:44;;;;;;;5.90;4.55;;;10.90;99.90;;;;;;5060492;28;20024;-75
2022/03/08 11:00:15;;;;;;;6.13;4.03;;;10.90;99.90;;;;;;5049449;28;20033;-70
2022/03/08 11:02:55;;;;;;;5.07;4.53;;;10.90;99.90;;;;;;5050581;28;20601;-73
2022/03/08 11:05:23;;;;;;;16.92;15.50;;;10.80;99.90;;;;;;5049289;28;20556;-76
2022/03/08 11:07:49;;;;;;;15.05;13.88;;;10.90;99.90;;;;;;5050934;28;20024;-73
2022/03/08 11:10:18;;;;;;;3.80;3.30;;;10.90;99.90;;;;;;5047481;28;20120;-80
2022/03/08 11:12:44;;;;;;;9.52;8.55;;;10.80;99.90;;;;;;5051513;28;20052;-75
2022/03/08 11:15:13;;;;;;;15.10;13.55;;;10.90;99.90;;;;;;5049749;28;20470;-74
2022/03/08 11:17:41;;;;;;;9.90;8.07;;;10.90;99.90;;;;;;5050198;28;20043;-75
2022/03/08 11:20:09;;;;;;;9.25;8.27;;;10.90;99.90;;;;;;5050690;28;20043;-76
2022/03/08 11:22:36;;;;;;;11.32;10.23;;;11.00;99.90;;;;;;5049904;28;20405;-76
2022/03/08 11:25:03;;;;;;;9.52;6.43;;;11.20;99.90;;;;;;5047208;28;20060;-76
2022/03/08 11:27:29;;;;;;;5.85;5.22;;;11.20;99.90;;;;;;5052599;28;20485;-74
2022/03/08 11:29:54;;;;;;;5.82;5.28;;;11.20;99.90;;;;;;5048956;28;20017;-74
2022/03/08 11:32:29;;;;;;;4.00;3.00;;;11.10;99.90;;;;;;5048180;28;20036;-74
2022/03/08 11:35:17;;;;;;;4.70;3.00;;;10.90;99.90;;;;;;5050582;28;20489;-74
2022/03/08 11:37:46;;;;;;;5.90;4.18;;;11.00;99.90;;;;;;5049920;28;20081;-74
2022/03/08 11:40:18;;;;;;;3.42;3.13;;;11.00;99.90;;;;;;5030193;28;20030;-74
2022/03/08 11:42:46;;;;;;;3.80;3.10;;;11.10;99.90;;;;;;5051037;28;20390;-74
2022/03/08 11:45:27;;;;;;;6.13;3.10;;;11.30;99.90;;;;;;5049615;28;20026;-72
2022/03/08 11:48:02;;;;;;;3.55;3.25;;;11.30;99.90;;;;;;5035139;28;20447;-73
2022/03/08 11:50:36;;;;;;;3.45;2.45;;;11.40;99.90;;;;;;5036656;28;20022;-74
2022/03/08 11:53:06;;;;;;;3.47;2.90;;;11.40;99.90;;;;;;5035719;28;20036;-73
2022/03/08 11:55:45;;;;;;;4.38;2.97;;;11.30;99.90;;;;;;5034293;28;20038;-74
2022/03/08 11:58:11;;;;;;;4.07;2.83;;;11.40;99.90;;;;;;5016532;28;20026;-69
2022/03/08 12:00:38;;;;;;;3.72;2.90;;;11.50;99.90;;;;;;5037724;28;20139;-73
2022/03/08 12:03:10;;;;;;;4.43;2.40;;;11.50;99.90;;;;;;5036416;28;20429;-72
2022/03/08 12:05:39;;;;;;;3.05;2.40;;;11.50;99.90;;;;;;5035990;28;20025;-71
2022/03/08 12:08:28;;;;;;;3.60;2.92;;;11.70;99.90;;;;;;5034766;28;20125;-70
2022/03/08 12:11:13;;;;;;;6.45;2.90;;;11.70;99.90;;;;;;5033523;28;20037;-70
2022/03/08 12:13:41;;;;;;;2.13;1.92;;;11.70;99.90;;;;;;5035801;28;20540;-76
2022/03/08 12:16:10;;;;;;;2.90;2.00;;;11.60;99.90;;;;;;5031777;28;20116;-76
2022/03/08 12:18:38;;;;;;;4.20;2.75;;;11.60;99.90;;;;;;5038317;28;20028;-76
2022/03/08 12:21:21;;;;;;;9.00;7.63;;;11.80;99.90;;;;;;5036404;28;20091;-74
2022/03/08 12:23:59;;;;;;;46.05;30.13;;;11.90;99.90;;;;;;5034725;28;20025;-75
2022/03/08 12:26:27;;;;;;;74.38;54.53;;;12.00;99.90;;;;;;5036082;28;20040;-72
2022/03/08 12:29:22;;;;;;;4.07;3.67;;;12.10;99.90;;;;;;5035739;28;20028;-74
2022/03/08 12:32:05;;;;;;;7.85;6.10;;;12.10;99.90;;;;;;5035765;28;20095;-74
2022/03/08 12:34:35;;;;;;;1.88;1.70;;;12.10;99.90;;;;;;5034043;28;20048;-74
2022/03/08 12:37:15;;;;;;;2.38;2.08;;;12.00;99.90;;;;;;5031574;28;20044;-74
2022/03/08 12:40:00;;;;;;;3.17;2.45;;;12.00;99.90;;;;;;5045760;28;20033;-75